Time;durP1;ratioP1;P1;durP2;ratioP2;P2;SDS_P1;SDS_P2;PMS_P1;PMS_P2;Temp;Humidity;BMP_temperature;BMP_pressure;BME280_temperature;BME280_humidity;BME280_pressure;Samples;Min_cycle;Max_cycle;Signal;HPM_P1;HPM_P2
2023/03/19 00:01:20;;;;;;;;;2.00;2.00;;;;;;;;5111644;28;8831;-69
2023/03/19 00:03:46;;;;;;;;;1.00;1.00;;;;;;;;5112856;27;8797;-69
2023/03/19 00:06:11;;;;;;;;;1.75;1.75;;;;;;;;5112660;27;8757;-69
2023/03/19 00:08:36;;;;;;;;;2.00;1.00;;;;;;;;5112979;28;9651;-69
2023/03/19 00:11:08;;;;;;;;;1.50;1.50;;;;;;;;5112816;28;8839;-69
2023/03/19 00:13:34;;;;;;;;;2.75;1.25;;;;;;;;5113096;27;8793;-69
2023/03/19 00:16:00;;;;;;;;;1.00;1.00;;;;;;;;5112697;27;9614;-69
2023/03/19 00:18:25;;;;;;;;;0.50;0.50;;;;;;;;5112872;27;8911;-70
2023/03/19 00:20:51;;;;;;;;;1.00;1.00;;;;;;;;5108927;27;8804;-69
2023/03/19 00:23:16;;;;;;;;;2.00;2.00;;;;;;;;5112649;27;8797;-69
2023/03/19 00:25:42;;;;;;;;;1.75;1.75;;;;;;;;5112327;27;8796;-69
2023/03/19 00:28:07;;;;;;;;;2.00;2.00;;;;;;;;5092377;27;9238;-69
2023/03/19 00:30:32;;;;;;;;;1.50;1.50;;;;;;;;5091841;28;9605;-69
2023/03/19 00:32:58;;;;;;;;;0.00;0.00;;;;;;;;5091883;28;8855;-71
2023/03/19 00:35:23;;;;;;;;;1.25;1.25;;;;;;;;5091683;28;8902;-69
2023/03/19 00:37:48;;;;;;;;;3.00;3.00;;;;;;;;5091964;28;8807;-69
2023/03/19 00:40:14;;;;;;;;;2.00;2.00;;;;;;;;5092095;28;9534;-69
2023/03/19 00:42:40;;;;;;;;;2.00;2.00;;;;;;;;5101275;27;8796;-69
2023/03/19 00:45:05;;;;;;;;;2.00;2.00;;;;;;;;5112346;27;8780;-70
2023/03/19 00:47:31;;;;;;;;;2.00;2.00;;;;;;;;5112266;27;9699;-70
2023/03/19 00:49:56;;;;;;;;;1.25;1.25;;;;;;;;5100224;28;8885;-70
2023/03/19 00:52:21;;;;;;;;;2.50;2.25;;;;;;;;5091820;28;8837;-70
2023/03/19 00:54:46;;;;;;;;;3.25;2.25;;;;;;;;5090311;28;8799;-70
2023/03/19 00:57:11;;;;;;;;;2.25;2.25;;;;;;;;5091628;28;8815;-70
2023/03/19 00:59:37;;;;;;;;;2.75;2.75;;;;;;;;5091709;28;9012;-69
2023/03/19 01:02:02;;;;;;;;;2.00;2.00;;;;;;;;5091564;28;9685;-68
2023/03/19 01:04:27;;;;;;;;;1.75;1.75;;;;;;;;5091013;28;8861;-68
2023/03/19 01:06:53;;;;;;;;;3.00;3.00;;;;;;;;5091290;28;8881;-69
2023/03/19 01:09:18;;;;;;;;;2.25;2.25;;;;;;;;5091271;28;8823;-69
2023/03/19 01:11:43;;;;;;;;;2.00;2.00;;;;;;;;5091513;28;8807;-68
2023/03/19 01:14:08;;;;;;;;;1.50;1.50;;;;;;;;5091343;28;8834;-68
2023/03/19 01:16:34;;;;;;;;;3.50;3.50;;;;;;;;5072895;28;9585;-68
2023/03/19 01:19:00;;;;;;;;;4.25;3.25;;;;;;;;5090848;28;8811;-68
2023/03/19 01:21:26;;;;;;;;;2.75;2.75;;;;;;;;5110267;27;8789;-71
2023/03/19 01:23:51;;;;;;;;;2.25;2.25;;;;;;;;5111551;27;8757;-68
2023/03/19 01:26:17;;;;;;;;;2.25;2.25;;;;;;;;5111655;27;9831;-68
2023/03/19 01:28:42;;;;;;;;;2.50;2.50;;;;;;;;5111888;28;8819;-68
2023/03/19 01:31:08;;;;;;;;;2.00;2.00;;;;;;;;5110314;28;8789;-68
2023/03/19 01:33:34;;;;;;;;;4.00;3.50;;;;;;;;5111209;27;8817;-69
2023/03/19 01:36:02;;;;;;;;;2.75;2.75;;;;;;;;5111589;28;9814;-69
2023/03/19 01:38:27;;;;;;;;;2.00;2.00;;;;;;;;5106828;27;9838;-70
2023/03/19 01:40:52;;;;;;;;;3.50;3.50;;;;;;;;5107160;27;9785;-68
2023/03/19 01:43:20;;;;;;;;;4.75;3.25;;;;;;;;5106842;27;8973;-70
2023/03/19 01:45:48;;;;;;;;;4.75;3.75;;;;;;;;5111275;27;8765;-69
2023/03/19 01:48:29;;;;;;;;;4.00;4.00;;;;;;;;5111292;27;10594;-69
2023/03/19 01:50:55;;;;;;;;;4.75;3.00;;;;;;;;5110035;28;9865;-69
2023/03/19 01:53:32;;;;;;;;;3.00;3.00;;;;;;;;5111194;27;9818;-70
2023/03/19 01:56:01;;;;;;;;;2.75;2.75;;;;;;;;5111266;27;9712;-69
2023/03/19 01:58:27;;;;;;;;;5.00;3.00;;;;;;;;5111338;27;9769;-70
2023/03/19 02:00:53;;;;;;;;;5.50;4.25;;;;;;;;5110638;27;10756;-70
2023/03/19 02:03:18;;;;;;;;;6.00;4.00;;;;;;;;5111076;27;8827;-69
2023/03/19 02:05:46;;;;;;;;;3.00;3.00;;;;;;;;5110991;28;11539;-70
2023/03/19 02:08:13;;;;;;;;;3.75;3.75;;;;;;;;5111187;27;8773;-71
2023/03/19 02:10:39;;;;;;;;;4.50;4.50;;;;;;;;5111148;27;10106;-70
2023/03/19 02:13:05;;;;;;;;;5.00;4.00;;;;;;;;5109598;28;9985;-70
2023/03/19 02:15:30;;;;;;;;;4.50;3.50;;;;;;;;5111340;27;9869;-70
2023/03/19 02:17:56;;;;;;;;;3.75;3.75;;;;;;;;5114960;27;8773;-71
2023/03/19 02:20:21;;;;;;;;;2.50;2.50;;;;;;;;5115030;27;8780;-69
2023/03/19 02:22:51;;;;;;;;;4.00;4.00;;;;;;;;5113312;28;8793;-70
2023/03/19 02:25:39;;;;;;;;;4.25;4.25;;;;;;;;5114740;27;8793;-69
2023/03/19 02:28:06;;;;;;;;;4.50;4.50;;;;;;;;5100786;27;9891;-69
2023/03/19 02:30:32;;;;;;;;;4.00;4.00;;;;;;;;5094003;28;9883;-68
2023/03/19 02:32:58;;;;;;;;;5.00;4.00;;;;;;;;5093958;28;9892;-69
2023/03/19 02:35:24;;;;;;;;;3.00;3.00;;;;;;;;5093869;28;10571;-68
2023/03/19 02:37:49;;;;;;;;;5.50;4.25;;;;;;;;5096129;28;8780;-69
2023/03/19 02:40:28;;;;;;;;;4.00;4.00;;;;;;;;5114532;27;10098;-69
2023/03/19 02:42:53;;;;;;;;;4.75;3.50;;;;;;;;5114348;27;8785;-69
2023/03/19 02:45:18;;;;;;;;;6.00;5.00;;;;;;;;5114094;28;10631;-69
2023/03/19 02:47:43;;;;;;;;;2.75;2.75;;;;;;;;5114500;28;8772;-70
2023/03/19 02:50:09;;;;;;;;;5.50;4.25;;;;;;;;5113688;28;8792;-69
2023/03/19 02:52:35;;;;;;;;;4.00;4.00;;;;;;;;5100013;27;8811;-70
2023/03/19 02:55:00;;;;;;;;;4.25;3.75;;;;;;;;5094746;28;8803;-69
2023/03/19 02:57:25;;;;;;;;;5.00;3.00;;;;;;;;5094104;28;9490;-69
2023/03/19 02:59:51;;;;;;;;;4.50;3.50;;;;;;;;5092191;28;8830;-68
2023/03/19 03:02:16;;;;;;;;;3.50;3.50;;;;;;;;5093303;28;8791;-69
2023/03/19 03:04:41;;;;;;;;;3.00;3.00;;;;;;;;5093106;28;8822;-71
2023/03/19 03:07:07;;;;;;;;;4.00;2.75;;;;;;;;5093480;28;8834;-71
2023/03/19 03:09:32;;;;;;;;;5.50;5.00;;;;;;;;5092022;28;9158;-71
2023/03/19 03:11:58;;;;;;;;;4.00;3.00;;;;;;;;5093210;28;8775;-70
2023/03/19 03:14:23;;;;;;;;;3.75;3.75;;;;;;;;5092950;28;8819;-70
2023/03/19 03:16:49;;;;;;;;;3.25;3.25;;;;;;;;5091984;28;8795;-70
2023/03/19 03:19:15;;;;;;;;;3.00;2.00;;;;;;;;5093442;28;8763;-71
2023/03/19 03:21:41;;;;;;;;;4.50;4.50;;;;;;;;5093305;28;9791;-70
2023/03/19 03:24:06;;;;;;;;;7.00;6.00;;;;;;;;5092451;28;9915;-70
2023/03/19 03:26:33;;;;;;;;;3.00;3.00;;;;;;;;5090612;28;8844;-69
2023/03/19 03:28:59;;;;;;;;;5.00;4.00;;;;;;;;5092812;28;8809;-70
2023/03/19 03:31:25;;;;;;;;;4.00;4.00;;;;;;;;5092795;28;9838;-69
2023/03/19 03:33:51;;;;;;;;;5.50;5.00;;;;;;;;5091645;28;9566;-70
2023/03/19 03:36:17;;;;;;;;;5.00;4.75;;;;;;;;5092416;28;9891;-70
2023/03/19 03:38:43;;;;;;;;;4.00;4.00;;;;;;;;5092601;28;8795;-70
2023/03/19 03:41:08;;;;;;;;;5.25;5.25;;;;;;;;5092630;28;9309;-70
2023/03/19 03:43:33;;;;;;;;;5.25;5.25;;;;;;;;5111842;27;9869;-70
2023/03/19 03:45:59;;;;;;;;;5.00;5.00;;;;;;;;5112785;28;8788;-70
2023/03/19 03:48:24;;;;;;;;;7.50;4.00;;;;;;;;5112796;27;8796;-69
2023/03/19 03:50:50;;;;;;;;;5.25;5.00;;;;;;;;5112750;27;8796;-68
2023/03/19 03:53:15;;;;;;;;;7.25;6.25;;;;;;;;5113182;27;8788;-69
2023/03/19 03:55:41;;;;;;;;;8.25;7.00;;;;;;;;5113306;28;8853;-69
2023/03/19 03:58:06;;;;;;;;;6.25;6.25;;;;;;;;5112301;27;8793;-69
2023/03/19 04:00:31;;;;;;;;;4.50;4.50;;;;;;;;5113319;27;8803;-69
2023/03/19 04:02:58;;;;;;;;;7.00;5.00;;;;;;;;5113261;28;8874;-69
2023/03/19 04:05:23;;;;;;;;;6.00;5.00;;;;;;;;5112968;27;9613;-69
2023/03/19 04:07:48;;;;;;;;;6.00;6.00;;;;;;;;5113270;28;9997;-69
2023/03/19 04:10:14;;;;;;;;;5.00;5.00;;;;;;;;5113032;28;8861;-69
2023/03/19 04:12:40;;;;;;;;;5.00;4.00;;;;;;;;5112357;27;8816;-69
2023/03/19 04:15:07;;;;;;;;;5.00;5.00;;;;;;;;5113073;27;8815;-70
2023/03/19 04:17:33;;;;;;;;;5.00;4.75;;;;;;;;5113205;27;11480;-70
2023/03/19 04:19:58;;;;;;;;;5.00;5.00;;;;;;;;5112942;28;9871;-70
2023/03/19 04:22:23;;;;;;;;;5.75;5.75;;;;;;;;5112959;28;8777;-71
2023/03/19 04:24:48;;;;;;;;;5.50;5.50;;;;;;;;5112755;28;8881;-71
2023/03/19 04:27:14;;;;;;;;;6.00;6.00;;;;;;;;5094031;28;8803;-71
2023/03/19 04:29:39;;;;;;;;;5.50;5.50;;;;;;;;5092415;28;8870;-71
2023/03/19 04:32:04;;;;;;;;;4.00;4.00;;;;;;;;5091855;28;9627;-72
2023/03/19 04:34:30;;;;;;;;;4.50;4.50;;;;;;;;5092243;28;8827;-71
2023/03/19 04:36:56;;;;;;;;;7.50;6.00;;;;;;;;5091900;28;8775;-71
2023/03/19 04:39:21;;;;;;;;;5.00;5.00;;;;;;;;5091479;28;8767;-71
2023/03/19 04:41:46;;;;;;;;;5.00;5.00;;;;;;;;5094790;28;8800;-70
2023/03/19 04:44:12;;;;;;;;;5.50;5.50;;;;;;;;5112760;28;8824;-70
2023/03/19 04:46:37;;;;;;;;;7.00;7.00;;;;;;;;5112429;27;8892;-70
2023/03/19 04:49:02;;;;;;;;;4.75;4.75;;;;;;;;5112570;27;8789;-70
2023/03/19 04:51:28;;;;;;;;;7.00;6.00;;;;;;;;5112395;28;8792;-69
2023/03/19 04:53:53;;;;;;;;;5.25;5.00;;;;;;;;5111654;28;8808;-69
2023/03/19 04:56:19;;;;;;;;;9.00;5.25;;;;;;;;5112138;27;8863;-69
2023/03/19 04:58:44;;;;;;;;;6.25;6.00;;;;;;;;5112517;28;8792;-69
2023/03/19 05:01:10;;;;;;;;;5.25;4.75;;;;;;;;5112084;27;8861;-69
2023/03/19 05:03:36;;;;;;;;;6.50;6.50;;;;;;;;5112230;27;8891;-69
2023/03/19 05:06:01;;;;;;;;;8.25;7.00;;;;;;;;5112077;27;8784;-69
2023/03/19 05:08:26;;;;;;;;;7.00;7.00;;;;;;;;5112345;28;9539;-69
2023/03/19 05:10:52;;;;;;;;;8.50;7.50;;;;;;;;5111967;28;8769;-69
2023/03/19 05:13:17;;;;;;;;;5.50;4.50;;;;;;;;5111994;27;8824;-69
2023/03/19 05:15:43;;;;;;;;;6.75;6.75;;;;;;;;5093647;28;8789;-69
2023/03/19 05:18:08;;;;;;;;;8.00;8.00;;;;;;;;5111986;27;8784;-69
2023/03/19 05:20:34;;;;;;;;;9.50;7.00;;;;;;;;5112056;28;9594;-69
2023/03/19 05:23:00;;;;;;;;;9.25;7.00;;;;;;;;5094909;28;8816;-69
2023/03/19 05:25:25;;;;;;;;;11.25;8.25;;;;;;;;5090933;28;10114;-69
2023/03/19 05:27:51;;;;;;;;;10.25;10.25;;;;;;;;5091057;28;8865;-69
2023/03/19 05:30:17;;;;;;;;;8.00;7.50;;;;;;;;5091116;28;8787;-69
2023/03/19 05:32:43;;;;;;;;;8.00;6.00;;;;;;;;5090883;28;8830;-69
2023/03/19 05:35:08;;;;;;;;;9.75;8.00;;;;;;;;5091163;28;10154;-69
2023/03/19 05:37:33;;;;;;;;;8.50;8.50;;;;;;;;5091501;28;8810;-69
2023/03/19 05:39:58;;;;;;;;;8.25;7.75;;;;;;;;5091091;28;8800;-69
2023/03/19 05:42:24;;;;;;;;;9.00;9.00;;;;;;;;5099542;28;8869;-70
2023/03/19 05:44:49;;;;;;;;;8.25;7.00;;;;;;;;5111440;28;8777;-70
2023/03/19 05:47:15;;;;;;;;;11.00;9.50;;;;;;;;5110384;28;8804;-69
2023/03/19 05:49:40;;;;;;;;;8.50;7.00;;;;;;;;5111517;28;8803;-70
2023/03/19 05:52:06;;;;;;;;;12.00;9.75;;;;;;;;5111411;27;8788;-70
2023/03/19 05:54:31;;;;;;;;;14.25;11.50;;;;;;;;5111564;27;8854;-69
2023/03/19 05:56:56;;;;;;;;;8.00;8.00;;;;;;;;5111519;28;10022;-69
2023/03/19 05:59:22;;;;;;;;;6.25;6.00;;;;;;;;5111398;28;8797;-69
2023/03/19 06:01:47;;;;;;;;;6.00;5.00;;;;;;;;5110746;27;9605;-69
2023/03/19 06:04:12;;;;;;;;;13.50;10.75;;;;;;;;5110998;27;8792;-69
2023/03/19 06:06:38;;;;;;;;;10.25;10.00;;;;;;;;5108582;28;8799;-70
2023/03/19 06:09:03;;;;;;;;;10.00;8.50;;;;;;;;5110786;28;8796;-69
2023/03/19 06:11:28;;;;;;;;;8.75;8.00;;;;;;;;5111062;28;8777;-70
2023/03/19 06:13:53;;;;;;;;;12.25;11.00;;;;;;;;5111145;28;9650;-69
2023/03/19 06:16:19;;;;;;;;;10.75;9.00;;;;;;;;5110878;28;8781;-69
2023/03/19 06:18:45;;;;;;;;;10.00;10.00;;;;;;;;5111240;27;8789;-69
2023/03/19 06:21:11;;;;;;;;;11.50;9.00;;;;;;;;5110596;27;8850;-69
2023/03/19 06:23:36;;;;;;;;;8.75;7.75;;;;;;;;5110606;27;9935;-69
2023/03/19 06:26:01;;;;;;;;;8.00;8.00;;;;;;;;5110682;28;8772;-69
2023/03/19 06:28:26;;;;;;;;;10.00;9.50;;;;;;;;5111077;28;8785;-69
2023/03/19 06:30:53;;;;;;;;;14.00;13.00;;;;;;;;5109313;28;8801;-69
2023/03/19 06:33:18;;;;;;;;;9.50;7.50;;;;;;;;5110666;27;8781;-69
2023/03/19 06:35:43;;;;;;;;;13.50;10.50;;;;;;;;5110518;28;9806;-69
2023/03/19 06:38:09;;;;;;;;;12.00;12.00;;;;;;;;5109816;28;8820;-69
2023/03/19 06:40:34;;;;;;;;;12.00;9.75;;;;;;;;5110689;28;8784;-68
2023/03/19 06:42:59;;;;;;;;;12.50;12.50;;;;;;;;5108816;27;8804;-69
2023/03/19 06:45:24;;;;;;;;;12.00;10.75;;;;;;;;5108954;28;8911;-69
2023/03/19 06:47:50;;;;;;;;;11.25;10.25;;;;;;;;5110306;28;9630;-69
2023/03/19 06:50:16;;;;;;;;;9.50;8.75;;;;;;;;5101321;27;8807;-69
2023/03/19 06:52:42;;;;;;;;;10.25;9.25;;;;;;;;5090428;28;8756;-68
2023/03/19 06:55:08;;;;;;;;;8.00;8.00;;;;;;;;5090154;28;9969;-69
2023/03/19 06:57:33;;;;;;;;;8.75;7.50;;;;;;;;5090362;28;8860;-68
2023/03/19 06:59:59;;;;;;;;;8.75;8.75;;;;;;;;5089878;28;8796;-69
2023/03/19 07:02:25;;;;;;;;;10.75;8.75;;;;;;;;5091949;28;8825;-68
2023/03/19 07:04:51;;;;;;;;;8.25;6.75;;;;;;;;5093199;28;8791;-69
2023/03/19 07:07:16;;;;;;;;;8.50;8.25;;;;;;;;5093512;28;8771;-69
2023/03/19 07:09:41;;;;;;;;;8.00;8.00;;;;;;;;5093523;28;9799;-68
2023/03/19 07:12:07;;;;;;;;;8.75;8.75;;;;;;;;5092951;28;8794;-69
2023/03/19 07:14:32;;;;;;;;;6.25;6.25;;;;;;;;5093340;28;8845;-68
2023/03/19 07:16:57;;;;;;;;;7.50;6.75;;;;;;;;5093665;28;8791;-68
2023/03/19 07:19:22;;;;;;;;;7.75;6.00;;;;;;;;5093035;28;8795;-69
2023/03/19 07:21:47;;;;;;;;;6.50;6.50;;;;;;;;5093403;28;8808;-69
2023/03/19 07:24:13;;;;;;;;;7.00;7.00;;;;;;;;5093329;28;8811;-69
2023/03/19 07:26:38;;;;;;;;;6.50;6.00;;;;;;;;5093393;28;8794;-69
2023/03/19 07:29:03;;;;;;;;;8.00;8.00;;;;;;;;5093448;28;8799;-69
2023/03/19 07:31:29;;;;;;;;;5.50;5.00;;;;;;;;5093305;28;8795;-69
2023/03/19 07:33:54;;;;;;;;;5.75;5.75;;;;;;;;5091342;28;8839;-69
2023/03/19 07:36:20;;;;;;;;;7.00;7.00;;;;;;;;5093340;28;8775;-71
2023/03/19 07:38:46;;;;;;;;;9.00;8.25;;;;;;;;5091969;28;8783;-71
2023/03/19 07:41:11;;;;;;;;;7.25;6.00;;;;;;;;5091913;28;9731;-71
2023/03/19 07:43:36;;;;;;;;;6.75;6.75;;;;;;;;5111658;28;9559;-71
2023/03/19 07:46:01;;;;;;;;;7.25;7.25;;;;;;;;5112833;28;8804;-71
2023/03/19 07:48:27;;;;;;;;;8.75;7.75;;;;;;;;5113028;27;8789;-71
2023/03/19 07:50:52;;;;;;;;;2.75;2.75;;;;;;;;5113336;28;8769;-71
2023/03/19 07:53:18;;;;;;;;;11.25;8.50;;;;;;;;5113049;27;8796;-71
2023/03/19 07:55:43;;;;;;;;;6.75;6.75;;;;;;;;5113070;27;8792;-71
2023/03/19 07:58:08;;;;;;;;;6.50;6.50;;;;;;;;5111719;28;8816;-71
2023/03/19 08:00:34;;;;;;;;;5.50;5.50;;;;;;;;5112937;28;8769;-71
2023/03/19 08:02:59;;;;;;;;;8.50;7.00;;;;;;;;5112406;28;8899;-71
2023/03/19 08:05:24;;;;;;;;;6.00;6.00;;;;;;;;5113042;27;8839;-71
2023/03/19 08:07:50;;;;;;;;;5.75;5.75;;;;;;;;5113508;28;8887;-71
2023/03/19 08:10:15;;;;;;;;;6.00;5.00;;;;;;;;5113167;27;8845;-71
2023/03/19 08:12:41;;;;;;;;;5.50;5.50;;;;;;;;5112453;27;8785;-70
2023/03/19 08:15:07;;;;;;;;;6.25;5.75;;;;;;;;5112468;28;8832;-70
2023/03/19 08:17:37;;;;;;;;;4.00;4.00;;;;;;;;5112721;27;9602;-70
2023/03/19 08:20:20;;;;;;;;;5.00;5.00;;;;;;;;5113116;27;9885;-70
2023/03/19 08:22:48;;;;;;;;;9.00;7.00;;;;;;;;5113118;27;10264;-69
2023/03/19 08:25:13;;;;;;;;;5.00;5.00;;;;;;;;5111409;28;9623;-70
2023/03/19 08:27:38;;;;;;;;;7.00;4.75;;;;;;;;5113162;28;9856;-70
2023/03/19 08:30:05;;;;;;;;;6.25;6.25;;;;;;;;5112815;28;8804;-70
2023/03/19 08:32:30;;;;;;;;;6.00;6.00;;;;;;;;5112288;27;8762;-70
2023/03/19 08:34:55;;;;;;;;;8.50;8.50;;;;;;;;5111705;27;9542;-71
2023/03/19 08:37:20;;;;;;;;;5.50;5.50;;;;;;;;5112330;28;8797;-71
2023/03/19 08:39:46;;;;;;;;;8.25;8.00;;;;;;;;5112853;28;8808;-70
2023/03/19 08:42:11;;;;;;;;;10.50;9.25;;;;;;;;5112597;27;8811;-70
2023/03/19 08:44:36;;;;;;;;;10.50;9.50;;;;;;;;5112709;28;8796;-70
2023/03/19 08:47:02;;;;;;;;;8.00;6.25;;;;;;;;5112082;28;8815;-70
2023/03/19 08:49:27;;;;;;;;;10.50;7.75;;;;;;;;5112530;27;8791;-70
2023/03/19 08:51:53;;;;;;;;;8.75;7.25;;;;;;;;5112525;27;8769;-71
2023/03/19 08:54:18;;;;;;;;;7.75;7.75;;;;;;;;5112690;28;9607;-71
2023/03/19 08:56:43;;;;;;;;;10.75;9.25;;;;;;;;5112640;28;8797;-72
2023/03/19 08:59:08;;;;;;;;;9.50;7.00;;;;;;;;5110964;28;8816;-71
2023/03/19 09:01:34;;;;;;;;;8.75;7.75;;;;;;;;5112373;28;8862;-71
2023/03/19 09:03:59;;;;;;;;;9.25;8.00;;;;;;;;5112153;27;8827;-71
2023/03/19 09:06:25;;;;;;;;;8.50;7.25;;;;;;;;5112327;27;11433;-71
2023/03/19 09:08:50;;;;;;;;;7.25;5.75;;;;;;;;5112244;27;8781;-71
2023/03/19 09:11:16;;;;;;;;;4.50;4.50;;;;;;;;5112164;28;9519;-72
2023/03/19 09:13:42;;;;;;;;;5.00;5.00;;;;;;;;5112391;27;8897;-71
2023/03/19 09:16:07;;;;;;;;;4.50;4.50;;;;;;;;5111925;28;9621;-70
2023/03/19 09:18:33;;;;;;;;;5.75;4.00;;;;;;;;5093926;28;8927;-71
2023/03/19 09:20:58;;;;;;;;;4.00;4.00;;;;;;;;5112158;27;8781;-70
2023/03/19 09:23:23;;;;;;;;;5.25;5.00;;;;;;;;5112148;28;8801;-71
2023/03/19 09:25:49;;;;;;;;;4.50;4.50;;;;;;;;5111837;27;8784;-71
2023/03/19 09:28:14;;;;;;;;;9.00;6.25;;;;;;;;5103378;27;9558;-71
2023/03/19 09:30:40;;;;;;;;;4.25;4.25;;;;;;;;5091327;28;8799;-71
2023/03/19 09:33:05;;;;;;;;;5.00;4.00;;;;;;;;5091345;28;8833;-71
2023/03/19 09:35:31;;;;;;;;;6.75;6.75;;;;;;;;5091172;28;8803;-71
2023/03/19 09:37:57;;;;;;;;;4.00;4.00;;;;;;;;5091271;28;8780;-71
2023/03/19 09:40:28;;;;;;;;;3.75;3.75;;;;;;;;5091201;28;9627;-71
2023/03/19 09:43:00;;;;;;;;;4.75;4.75;;;;;;;;5104748;27;10864;-71
2023/03/19 09:45:26;;;;;;;;;3.75;3.75;;;;;;;;5111140;28;9699;-71
2023/03/19 09:47:55;;;;;;;;;7.00;5.00;;;;;;;;5111674;27;9796;-71
2023/03/19 09:50:22;;;;;;;;;5.25;5.25;;;;;;;;5110582;28;9718;-72
2023/03/19 09:53:06;;;;;;;;;4.75;4.75;;;;;;;;5111655;27;9774;-71
2023/03/19 09:55:31;;;;;;;;;5.00;5.00;;;;;;;;5111793;28;9642;-71
2023/03/19 09:57:57;;;;;;;;;11.75;10.50;;;;;;;;5111577;28;9880;-71
2023/03/19 10:00:35;;;;;;;;;7.50;7.50;;;;;;;;5111628;27;8749;-71
2023/03/19 10:03:20;;;;;;;;;7.00;7.00;;;;;;;;5111467;27;9797;-71
2023/03/19 10:05:51;;;;;;;;;5.50;4.00;;;;;;;;5111292;27;9846;-71
2023/03/19 10:08:16;;;;;;;;;4.00;4.00;;;;;;;;5109160;28;9807;-72
2023/03/19 10:10:42;;;;;;;;;3.75;3.75;;;;;;;;5111410;28;9897;-72
2023/03/19 10:13:28;;;;;;;;;9.00;7.25;;;;;;;;5111311;28;8821;-72
2023/03/19 10:15:54;;;;;;;;;7.00;6.00;;;;;;;;5111699;27;8780;-71
2023/03/19 10:18:27;;;;;;;;;5.75;5.75;;;;;;;;5111580;27;9765;-72
2023/03/19 10:21:12;;;;;;;;;8.00;5.00;;;;;;;;5111377;28;8764;-71
2023/03/19 10:23:40;;;;;;;;;11.00;9.25;;;;;;;;5109720;28;9818;-71
2023/03/19 10:26:14;;;;;;;;;8.25;8.25;;;;;;;;5111124;27;10033;-71
2023/03/19 10:28:41;;;;;;;;;11.50;8.25;;;;;;;;5110309;27;9768;-71
2023/03/19 10:31:12;;;;;;;;;11.25;8.25;;;;;;;;5110458;27;9782;-72
2023/03/19 10:33:55;;;;;;;;;8.75;8.50;;;;;;;;5111046;27;9950;-72
2023/03/19 10:36:25;;;;;;;;;9.75;8.00;;;;;;;;5111674;27;10032;-71
2023/03/19 10:38:50;;;;;;;;;11.25;7.75;;;;;;;;5114570;27;9973;-71
2023/03/19 10:41:23;;;;;;;;;8.00;8.00;;;;;;;;5114751;28;9891;-71
2023/03/19 10:43:53;;;;;;;;;12.50;9.75;;;;;;;;5094042;28;8780;-71
2023/03/19 10:46:20;;;;;;;;;11.00;8.25;;;;;;;;5094214;28;10009;-71
2023/03/19 10:48:45;;;;;;;;;12.75;11.50;;;;;;;;5094322;28;10053;-71
2023/03/19 10:51:13;;;;;;;;;6.00;6.00;;;;;;;;5094201;28;10059;-71
2023/03/19 10:53:40;;;;;;;;;5.25;5.25;;;;;;;;5094078;28;8795;-71
2023/03/19 10:56:05;;;;;;;;;13.00;10.75;;;;;;;;5093792;28;9874;-72
2023/03/19 10:58:32;;;;;;;;;6.75;5.75;;;;;;;;5092350;28;9970;-72
2023/03/19 11:01:02;;;;;;;;;8.50;6.25;;;;;;;;5093977;28;8748;-72
2023/03/19 11:03:27;;;;;;;;;3.50;3.00;;;;;;;;5093269;28;9956;-71
2023/03/19 11:06:02;;;;;;;;;2.00;1.00;;;;;;;;5093072;28;9674;-71
2023/03/19 11:08:27;;;;;;;;;3.25;3.00;;;;;;;;5093493;28;8764;-71
2023/03/19 11:10:52;;;;;;;;;2.75;2.75;;;;;;;;5094492;28;9790;-72
2023/03/19 11:13:25;;;;;;;;;3.00;3.00;;;;;;;;5103379;28;8824;-72
2023/03/19 11:15:50;;;;;;;;;3.00;3.00;;;;;;;;5113975;28;8761;-71
2023/03/19 11:18:19;;;;;;;;;3.25;3.25;;;;;;;;5114137;27;9893;-71
2023/03/19 11:20:48;;;;;;;;;3.75;3.25;;;;;;;;5114047;27;8802;-71
2023/03/19 11:23:18;;;;;;;;;5.25;3.00;;;;;;;;5114094;27;9748;-71
2023/03/19 11:25:50;;;;;;;;;4.00;2.75;;;;;;;;5113598;27;9586;-71
2023/03/19 11:28:16;;;;;;;;;4.00;4.00;;;;;;;;5113931;27;9634;-72
2023/03/19 11:31:00;;;;;;;;;4.00;4.00;;;;;;;;5108295;27;9991;-72
2023/03/19 11:33:38;;;;;;;;;3.00;3.00;;;;;;;;5092977;28;9725;-72
2023/03/19 11:36:26;;;;;;;;;2.00;2.00;;;;;;;;5093289;28;9513;-71
2023/03/19 11:39:11;;;;;;;;;3.00;3.00;;;;;;;;5084670;28;9792;-72
2023/03/19 11:41:48;;;;;;;;;4.75;3.75;;;;;;;;5095630;27;9778;-72
2023/03/19 11:44:21;;;;;;;;;2.75;2.75;;;;;;;;5113488;27;9486;-71
2023/03/19 11:47:09;;;;;;;;;2.00;1.00;;;;;;;;5113329;27;9676;-72
2023/03/19 11:49:36;;;;;;;;;2.25;2.25;;;;;;;;5102124;28;9535;-72
2023/03/19 11:52:12;;;;;;;;;3.25;3.25;;;;;;;;5107034;27;9462;-72
2023/03/19 11:54:40;;;;;;;;;2.00;2.00;;;;;;;;5095528;27;9580;-72
2023/03/19 11:57:08;;;;;;;;;1.75;1.50;;;;;;;;5096495;27;9458;-72
2023/03/19 11:59:53;;;;;;;;;4.50;4.50;;;;;;;;5099027;27;9566;-72
2023/03/19 12:02:31;;;;;;;;;1.50;1.00;;;;;;;;5094950;27;9795;-71
2023/03/19 12:05:17;;;;;;;;;3.00;2.00;;;;;;;;5110956;28;9472;-72
2023/03/19 12:07:57;;;;;;;;;1.00;1.00;;;;;;;;5098176;27;10347;-71
2023/03/19 12:10:23;;;;;;;;;1.00;1.00;;;;;;;;5113140;28;9313;-72
2023/03/19 12:12:58;;;;;;;;;5.50;4.25;;;;;;;;5112856;28;9446;-71
2023/03/19 12:15:26;;;;;;;;;4.75;4.75;;;;;;;;5113028;27;8780;-72
2023/03/19 12:18:15;;;;;;;;;4.00;4.00;;;;;;;;5112858;27;9534;-72
2023/03/19 12:20:48;;;;;;;;;3.00;2.00;;;;;;;;5113267;27;9522;-71
2023/03/19 12:23:22;;;;;;;;;2.00;2.00;;;;;;;;5113080;27;9581;-71
2023/03/19 12:26:03;;;;;;;;;3.00;2.67;;;;;;;;5112895;28;9390;-71
2023/03/19 12:28:30;;;;;;;;;3.00;3.00;;;;;;;;5112933;27;9454;-71
2023/03/19 12:31:05;;;;;;;;;4.00;3.50;;;;;;;;5112741;27;10313;-71
2023/03/19 12:33:49;;;;;;;;;2.50;2.50;;;;;;;;5112381;27;9793;-71
2023/03/19 12:36:19;;;;;;;;;6.25;4.75;;;;;;;;5112645;27;9650;-71
2023/03/19 12:39:04;;;;;;;;;5.50;5.50;;;;;;;;5112501;27;9787;-71
2023/03/19 12:41:31;;;;;;;;;5.00;5.00;;;;;;;;5112297;27;9773;-71
2023/03/19 12:44:03;;;;;;;;;4.00;3.00;;;;;;;;5112489;27;10455;-71
2023/03/19 12:46:57;;;;;;;;;3.75;3.00;;;;;;;;5110699;28;9533;-71
2023/03/19 12:49:30;;;;;;;;;4.00;4.00;;;;;;;;5094737;27;9788;-71
2023/03/19 12:51:58;;;;;;;;;3.50;3.50;;;;;;;;5112466;27;9714;-71
2023/03/19 12:54:30;;;;;;;;;2.33;2.00;;;;;;;;5109179;27;9586;-71
2023/03/19 12:56:58;;;;;;;;;3.33;3.33;;;;;;;;5110925;28;9636;-71
2023/03/19 12:59:26;;;;;;;;;3.75;3.00;;;;;;;;5111194;27;9500;-71
2023/03/19 13:02:08;;;;;;;;;8.50;6.75;;;;;;;;5112094;28;9531;-71
2023/03/19 13:04:37;;;;;;;;;8.50;7.25;;;;;;;;5098272;27;9867;-72
2023/03/19 13:07:02;;;;;;;;;12.75;8.50;;;;;;;;5092446;28;10713;-71
2023/03/19 13:09:48;;;;;;;;;4.00;4.00;;;;;;;;5090831;28;9768;-71
2023/03/19 13:12:20;;;;;;;;;5.75;5.00;;;;;;;;5091299;28;8783;-71
2023/03/19 13:14:57;;;;;;;;;3.75;3.75;;;;;;;;5092227;28;9929;-71
2023/03/19 13:17:35;;;;;;;;;4.25;4.25;;;;;;;;5091755;28;9691;-71
2023/03/19 13:20:06;;;;;;;;;5.00;5.00;;;;;;;;5092167;28;9566;-72
2023/03/19 13:22:34;;;;;;;;;2.25;2.00;;;;;;;;5091448;28;9631;-71
2023/03/19 13:25:00;;;;;;;;;3.00;3.00;;;;;;;;5091470;28;9653;-71
2023/03/19 13:27:28;;;;;;;;;5.00;5.00;;;;;;;;5090044;28;9495;-71
2023/03/19 13:30:14;;;;;;;;;1.00;1.00;;;;;;;;5091532;28;9559;-73
2023/03/19 13:32:41;;;;;;;;;2.75;2.75;;;;;;;;5090935;28;9422;-72
2023/03/19 13:35:07;;;;;;;;;4.00;4.00;;;;;;;;5090144;28;10536;-71
2023/03/19 13:37:33;;;;;;;;;1.33;1.33;;;;;;;;5091394;28;9617;-72
2023/03/19 13:40:03;;;;;;;;;3.75;3.75;;;;;;;;5091548;28;9334;-71
2023/03/19 13:42:41;;;;;;;;;2.33;2.33;;;;;;;;5101375;27;8789;-72
2023/03/19 13:45:25;;;;;;;;;2.00;2.00;;;;;;;;5111521;27;9393;-71
2023/03/19 13:47:51;;;;;;;;;2.25;2.25;;;;;;;;5111742;27;9455;-72
2023/03/19 13:50:23;;;;;;;;;2.25;2.00;;;;;;;;5111462;27;10265;-71
2023/03/19 13:53:07;;;;;;;;;1.00;1.00;;;;;;;;5111219;27;10325;-72
2023/03/19 13:55:45;;;;;;;;;3.00;3.00;;;;;;;;5111445;28;9377;-71
2023/03/19 13:58:47;;;;;;;;;3.25;2.25;;;;;;;;5111689;27;9566;-71
2023/03/19 14:01:01;;;;;;;;;4.00;2.75;;;;;;;;5111372;28;10436;-71
2023/03/19 14:03:34;;;;;;;;;3.25;3.25;;;;;;;;5111319;28;9483;-71
2023/03/19 14:06:00;;;;;;;;;2.00;2.00;;;;;;;;5111637;27;8842;-73
2023/03/19 14:08:32;;;;;;;;;4.00;3.00;;;;;;;;5110025;28;9617;-72
2023/03/19 14:10:59;;;;;;;;;3.00;3.00;;;;;;;;5111261;27;9858;-72
2023/03/19 14:13:28;;;;;;;;;2.00;0.00;;;;;;;;5114386;27;9881;-71
2023/03/19 14:16:00;;;;;;;;;2.75;2.75;;;;;;;;5114873;27;10056;-72
2023/03/19 14:18:25;;;;;;;;;2.00;2.00;;;;;;;;5115084;27;9606;-71
2023/03/19 14:21:10;;;;;;;;;1.00;1.00;;;;;;;;5114899;27;10368;-71
2023/03/19 14:23:38;;;;;;;;;3.75;2.50;;;;;;;;5031723;28;8787;-71
2023/03/19 14:26:13;;;;;;;;;5.75;4.00;;;;;;;;5031759;28;9531;-71
2023/03/19 14:28:39;;;;;;;;;1.75;1.50;;;;;;;;5032038;28;9820;-71
2023/03/19 14:31:05;;;;;;;;;3.00;3.00;;;;;;;;5031787;28;9559;-69
2023/03/19 14:33:44;;;;;;;;;3.75;3.00;;;;;;;;5031417;28;8905;-69
2023/03/19 14:36:14;;;;;;;;;2.67;2.67;;;;;;;;5031501;28;9533;-69
2023/03/19 14:38:46;;;;;;;;;2.33;1.00;;;;;;;;5031431;28;9461;-69
2023/03/19 14:41:15;;;;;;;;;1.00;1.00;;;;;;;;5031421;28;9485;-69
2023/03/19 14:43:52;;;;;;;;;3.00;3.00;;;;;;;;5030965;28;9565;-69
2023/03/19 14:46:20;;;;;;;;;2.75;2.00;;;;;;;;5031221;28;9787;-69
2023/03/19 14:49:05;;;;;;;;;1.00;1.00;;;;;;;;5030877;28;9553;-69
2023/03/19 14:51:45;;;;;;;;;1.75;1.75;;;;;;;;5031287;28;9476;-69
2023/03/19 14:54:25;;;;;;;;;1.00;1.00;;;;;;;;5030966;28;9678;-73
2023/03/19 14:56:51;;;;;;;;;2.00;1.00;;;;;;;;5031173;28;9480;-70
2023/03/19 14:59:17;;;;;;;;;2.00;2.00;;;;;;;;5030985;28;9501;-70